createdAt,value
2019-05-21T00:02:16.887Z,13.72
2019-05-21T00:04:45.979Z,13.75
2019-05-21T00:07:15.289Z,13.73
2019-05-21T00:09:44.359Z,13.74
2019-05-21T00:12:13.475Z,13.68
2019-05-21T00:14:42.554Z,13.82
2019-05-21T00:17:12.020Z,13.70
2019-05-21T00:19:41.360Z,13.70
2019-05-21T00:22:10.766Z,13.79
2019-05-21T00:24:40.091Z,13.56
2019-05-21T00:27:09.089Z,13.61
2019-05-21T00:30:14.374Z,13.68
2019-05-21T00:33:19.614Z,13.71
2019-05-21T00:36:25.773Z,13.60
2019-05-21T00:39:31.316Z,13.42
2019-05-21T00:42:02.949Z,13.48
2019-05-21T00:44:35.028Z,13.49
2019-05-21T00:47:05.651Z,13.57
2019-05-21T00:49:34.877Z,13.64
2019-05-21T00:52:08.529Z,13.46
2019-05-21T00:54:36.278Z,13.49
2019-05-21T00:57:05.680Z,13.58
2019-05-21T00:59:34.833Z,13.51
2019-05-21T01:02:04.211Z,13.56
2019-05-21T01:04:33.510Z,13.49
2019-05-21T01:07:02.710Z,13.55
2019-05-21T01:09:31.811Z,13.51
2019-05-21T01:12:00.938Z,13.37
2019-05-21T01:14:29.975Z,13.34
2019-05-21T01:16:59.259Z,13.34
2019-05-21T01:19:28.700Z,13.37
2019-05-21T01:21:57.731Z,13.44
2019-05-21T01:24:27.650Z,13.30
2019-05-21T01:26:56.786Z,13.38
2019-05-21T01:29:26.145Z,13.32
2019-05-21T01:31:55.223Z,13.16
2019-05-21T01:34:24.292Z,13.25
2019-05-21T01:36:53.362Z,13.09
2019-05-21T01:39:22.507Z,13.17
2019-05-21T01:41:51.818Z,13.17
2019-05-21T01:44:21.026Z,13.21
2019-05-21T01:46:50.071Z,13.18
2019-05-21T01:49:19.148Z,13.11
2019-05-21T01:51:48.468Z,13.20
2019-05-21T01:54:17.814Z,13.14
2019-05-21T01:56:46.854Z,13.11
2019-05-21T01:59:16.306Z,13.03
2019-05-21T02:01:45.360Z,13.02
2019-05-21T02:04:14.693Z,13.03
2019-05-21T02:06:44.426Z,13.04
2019-05-21T02:09:13.548Z,12.91
2019-05-21T02:11:42.592Z,12.86
2019-05-21T02:14:11.661Z,12.82
2019-05-21T02:16:40.734Z,12.81
2019-05-21T02:19:10.077Z,12.81
2019-05-21T02:21:39.174Z,12.91
2019-05-21T02:24:08.439Z,12.88
2019-05-21T02:26:37.494Z,12.96
2019-05-21T02:29:06.614Z,13.04
2019-05-21T02:31:35.927Z,13.01
2019-05-21T02:34:05.280Z,12.90
2019-05-21T02:36:34.414Z,12.94
2019-05-21T02:39:05.196Z,13.00
2019-05-21T02:41:34.531Z,13.02
2019-05-21T02:44:03.639Z,12.96
2019-05-21T02:46:32.992Z,12.89
2019-05-21T02:49:02.100Z,12.75
2019-05-21T02:51:31.635Z,12.76
2019-05-21T02:54:00.944Z,12.80
2019-05-21T02:56:30.374Z,12.84
2019-05-21T02:58:59.448Z,12.87
2019-05-21T03:01:33.277Z,12.72
2019-05-21T03:04:02.327Z,12.72
2019-05-21T03:06:31.439Z,12.74
2019-05-21T03:09:00.799Z,12.75
2019-05-21T03:11:29.855Z,12.73
2019-05-21T03:13:58.964Z,12.77
2019-05-21T03:16:28.031Z,12.68
2019-05-21T03:18:57.288Z,12.66
2019-05-21T03:21:26.644Z,12.71
2019-05-21T03:23:55.723Z,12.64
2019-05-21T03:26:25.129Z,12.69
2019-05-21T03:28:54.205Z,12.70
2019-05-21T03:31:23.282Z,12.53
2019-05-21T03:33:52.733Z,12.64
2019-05-21T03:36:32.863Z,12.70
2019-05-21T03:38:52.597Z,12.59
2019-05-21T03:41:21.688Z,12.61
2019-05-21T03:43:50.911Z,12.55
2019-05-21T03:46:20.395Z,12.63
2019-05-21T03:48:49.538Z,12.61
2019-05-21T03:51:19.469Z,12.66
2019-05-21T03:53:48.524Z,12.68
2019-05-21T03:56:18.366Z,12.68
2019-05-21T03:58:47.639Z,12.64
2019-05-21T04:01:16.915Z,12.60
2019-05-21T04:03:46.147Z,12.64
2019-05-21T04:06:15.491Z,12.48
2019-05-21T04:08:44.560Z,12.45
2019-05-21T04:11:13.865Z,12.47
2019-05-21T04:13:43.192Z,12.32
2019-05-21T04:16:13.916Z,12.35
2019-05-21T04:18:50.343Z,12.58
2019-05-21T04:21:19.410Z,12.53
2019-05-21T04:23:48.716Z,12.51
2019-05-21T04:26:17.885Z,12.57
2019-05-21T04:28:47.019Z,12.63
2019-05-21T04:31:16.093Z,12.57
2019-05-21T04:33:45.175Z,12.65
2019-05-21T04:36:14.236Z,12.63
2019-05-21T04:38:43.643Z,12.69
2019-05-21T04:41:12.732Z,12.66
2019-05-21T04:43:41.787Z,12.67
2019-05-21T04:46:10.843Z,12.58
2019-05-21T04:48:39.930Z,12.65
2019-05-21T04:51:13.499Z,12.61
2019-05-21T04:53:39.985Z,12.61
2019-05-21T04:56:09.164Z,12.57
2019-05-21T04:58:38.381Z,12.55
2019-05-21T05:01:07.683Z,12.56
2019-05-21T05:03:36.716Z,12.61
2019-05-21T05:06:05.862Z,12.62
2019-05-21T05:08:35.006Z,12.64
2019-05-21T05:11:04.174Z,12.65
2019-05-21T05:13:33.463Z,12.59
2019-05-21T05:16:04.352Z,12.66
2019-05-21T05:18:33.926Z,12.58
2019-05-21T05:21:02.982Z,12.60
2019-05-21T05:23:32.055Z,12.63
2019-05-21T05:26:01.344Z,12.61
2019-05-21T05:28:30.576Z,12.57
2019-05-21T05:30:59.705Z,12.55
2019-05-21T05:33:28.938Z,12.64
2019-05-21T05:35:58.046Z,12.58
2019-05-21T05:38:27.273Z,12.65
2019-05-21T05:40:56.686Z,12.56
2019-05-21T05:43:25.732Z,12.57
2019-05-21T05:45:54.796Z,12.64
2019-05-21T05:48:24.266Z,12.62
2019-05-21T05:51:01.263Z,12.59
2019-05-21T05:53:30.750Z,12.50
2019-05-21T05:55:59.820Z,12.42
2019-05-21T05:58:29.113Z,12.50
2019-05-21T06:00:58.173Z,12.48
2019-05-21T06:03:27.273Z,12.46
2019-05-21T06:05:56.351Z,12.46
2019-05-21T06:08:25.430Z,12.42
2019-05-21T06:10:54.558Z,12.35
2019-05-21T06:13:23.618Z,12.37
2019-05-21T06:15:53.206Z,12.27
2019-05-21T06:18:22.322Z,12.40
2019-05-21T06:20:51.625Z,12.38
2019-05-21T06:23:20.690Z,12.49
2019-05-21T06:25:49.756Z,12.46
2019-05-21T06:28:18.793Z,12.44
2019-05-21T06:30:47.934Z,12.35
2019-05-21T06:33:17.050Z,12.49
2019-05-21T06:35:46.918Z,12.50
2019-05-21T06:38:18.118Z,12.58
2019-05-21T06:40:47.130Z,12.48
2019-05-21T06:43:16.164Z,12.45
2019-05-21T06:45:45.316Z,12.50
2019-05-21T06:48:14.422Z,12.60
2019-05-21T06:50:43.830Z,12.66
2019-05-21T06:53:12.855Z,12.68
2019-05-21T06:55:42.056Z,12.73
2019-05-21T06:58:11.146Z,12.72
2019-05-21T07:00:40.178Z,12.79
2019-05-21T07:03:09.541Z,12.57
2019-05-21T07:05:38.980Z,12.70
2019-05-21T07:08:08.241Z,12.61
2019-05-21T07:10:37.395Z,12.63
2019-05-21T07:13:06.491Z,12.64
2019-05-21T07:15:35.558Z,12.68
2019-05-21T07:18:04.672Z,12.62
2019-05-21T07:20:34.003Z,12.74
2019-05-21T07:23:03.305Z,12.67
2019-05-21T07:25:32.844Z,12.68
2019-05-21T07:28:02.003Z,12.73
2019-05-21T07:30:31.316Z,12.62
2019-05-21T07:33:00.795Z,12.72
2019-05-21T07:35:30.160Z,12.77
2019-05-21T07:37:59.736Z,12.64
2019-05-21T07:40:28.935Z,12.78
2019-05-21T07:42:58.024Z,12.78
2019-05-21T07:45:27.359Z,12.84
2019-05-21T07:47:56.482Z,12.73
2019-05-21T07:50:25.575Z,12.57
2019-05-21T07:52:55.120Z,12.55
2019-05-21T07:55:24.414Z,12.63
2019-05-21T07:57:53.508Z,12.63
2019-05-21T08:00:23.851Z,12.55
2019-05-21T08:02:53.377Z,12.46
2019-05-21T08:05:22.424Z,12.47
2019-05-21T08:07:51.780Z,12.47
2019-05-21T08:10:21.007Z,12.58
2019-05-21T08:12:50.077Z,12.57
2019-05-21T08:15:19.254Z,12.62
2019-05-21T08:17:48.865Z,12.66
2019-05-21T08:20:19.417Z,12.61
2019-05-21T08:22:49.086Z,12.72
2019-05-21T08:25:18.126Z,12.60
2019-05-21T08:27:47.419Z,12.65
2019-05-21T08:30:17.283Z,12.65
2019-05-21T08:32:46.725Z,12.48
2019-05-21T08:35:16.125Z,12.57
2019-05-21T08:37:45.179Z,12.57
2019-05-21T08:40:14.984Z,12.64
2019-05-21T08:42:44.406Z,12.47
2019-05-21T08:45:14.660Z,12.42
2019-05-21T08:47:43.690Z,12.53
2019-05-21T08:50:13.623Z,12.58
2019-05-21T08:52:42.669Z,12.57
2019-05-21T08:55:12.006Z,12.30
2019-05-21T08:57:41.063Z,12.37
2019-05-21T09:00:14.845Z,12.42
2019-05-21T09:02:44.236Z,12.47
2019-05-21T09:05:14.250Z,12.52
2019-05-21T09:07:43.703Z,12.54
2019-05-21T09:10:15.045Z,12.48
2019-05-21T09:12:44.521Z,12.54
2019-05-21T09:15:15.924Z,12.50
2019-05-21T09:17:45.634Z,12.55
2019-05-21T09:20:15.908Z,12.55
2019-05-21T09:22:44.989Z,12.51
2019-05-21T09:25:14.744Z,12.51
2019-05-21T09:27:43.831Z,12.62
2019-05-21T09:30:14.184Z,12.70
2019-05-21T09:32:43.382Z,12.65
2019-05-21T09:35:13.533Z,12.58
2019-05-21T09:37:42.897Z,12.59
2019-05-21T09:40:12.911Z,12.56
2019-05-21T09:42:45.106Z,12.65
2019-05-21T09:45:13.574Z,12.77
2019-05-21T09:47:43.085Z,12.77
2019-05-21T09:50:13.053Z,12.81
2019-05-21T09:52:42.554Z,12.75
2019-05-21T09:55:12.030Z,12.75
2019-05-21T09:57:46.006Z,12.81
2019-05-21T10:00:18.497Z,12.96
2019-05-21T10:02:47.637Z,12.89
2019-05-21T10:05:17.126Z,12.88
2019-05-21T10:07:46.424Z,12.94
2019-05-21T10:10:15.503Z,12.90
2019-05-21T10:12:44.565Z,13.03
2019-05-21T10:15:14.158Z,13.01
2019-05-21T10:17:43.306Z,12.97
2019-05-21T10:20:13.190Z,13.00
2019-05-21T10:22:42.249Z,12.91
2019-05-21T10:25:12.056Z,12.89
2019-05-21T10:27:41.366Z,12.94
2019-05-21T10:30:11.161Z,12.94
2019-05-21T10:32:40.265Z,12.74
2019-05-21T10:35:09.867Z,12.66
2019-05-21T10:37:52.611Z,12.86
2019-05-21T10:40:10.835Z,12.86
2019-05-21T10:42:40.053Z,12.81
2019-05-21T10:45:09.870Z,12.86
2019-05-21T10:47:38.987Z,12.94
2019-05-21T10:50:08.958Z,12.88
2019-05-21T10:52:38.057Z,12.77
2019-05-21T10:55:09.178Z,12.91
2019-05-21T10:57:38.568Z,12.88
2019-05-21T11:00:12.429Z,12.91
2019-05-21T11:02:43.150Z,12.90
2019-05-21T11:05:28.885Z,12.84
2019-05-21T11:08:21.762Z,12.89
2019-05-21T11:10:28.802Z,12.92
2019-05-21T11:12:58.062Z,12.91
2019-05-21T11:15:27.199Z,12.90
2019-05-21T11:18:09.706Z,12.99
2019-05-21T11:20:27.406Z,13.02
2019-05-21T11:22:58.404Z,12.78
2019-05-21T11:25:27.757Z,12.79
2019-05-21T11:27:56.897Z,12.84
2019-05-21T11:30:25.957Z,12.87
2019-05-21T11:32:55.513Z,12.90
2019-05-21T11:35:24.722Z,12.93
2019-05-21T11:37:53.796Z,12.90
2019-05-21T11:40:25.017Z,12.88
2019-05-21T11:42:54.154Z,12.90
2019-05-21T11:45:32.439Z,12.89
2019-05-21T11:47:55.046Z,12.96
2019-05-21T11:50:24.521Z,12.88
2019-05-21T11:52:54.661Z,12.91
2019-05-21T11:55:23.813Z,12.71
2019-05-21T11:57:52.863Z,12.75
2019-05-21T12:00:24.368Z,12.78
2019-05-21T12:02:53.475Z,12.76
2019-05-21T12:05:22.608Z,12.89
2019-05-21T12:07:51.840Z,12.85
2019-05-21T12:10:20.955Z,12.84
2019-05-21T12:12:50.020Z,12.85
2019-05-21T12:15:19.534Z,12.80
2019-05-21T12:17:48.590Z,12.73
2019-05-21T12:20:35.168Z,12.84
2019-05-21T12:22:49.736Z,12.78
2019-05-21T12:25:19.050Z,12.81
2019-05-21T12:27:48.099Z,12.78
2019-05-21T12:30:18.240Z,12.77
2019-05-21T12:32:47.362Z,12.67
2019-05-21T12:35:16.952Z,12.62
2019-05-21T12:37:46.195Z,12.69
2019-05-21T12:40:17.676Z,12.77
2019-05-21T12:42:46.817Z,12.72
2019-05-21T12:45:16.811Z,12.75
2019-05-21T12:47:45.882Z,12.80
2019-05-21T12:50:15.757Z,12.76
2019-05-21T12:52:45.011Z,12.81
2019-05-21T12:55:15.103Z,12.77
2019-05-21T12:57:44.521Z,12.84
2019-05-21T13:00:15.327Z,12.87
2019-05-21T13:02:44.689Z,12.82
2019-05-21T13:05:14.494Z,12.76
2019-05-21T13:07:43.624Z,12.84
2019-05-21T13:10:13.794Z,12.86
2019-05-21T13:12:42.870Z,12.93
2019-05-21T13:15:13.124Z,12.94
2019-05-21T13:17:42.204Z,12.91
2019-05-21T13:20:13.576Z,12.78
2019-05-21T13:22:42.656Z,12.87
2019-05-21T13:25:12.476Z,12.73
2019-05-21T13:27:41.600Z,12.75
2019-05-21T13:30:11.373Z,12.73
2019-05-21T13:32:43.654Z,12.73
2019-05-21T13:35:12.273Z,12.58
2019-05-21T13:37:41.322Z,12.76
2019-05-21T13:40:12.124Z,12.78
2019-05-21T13:42:41.286Z,12.80
2019-05-21T13:45:10.687Z,12.65
2019-05-21T13:47:39.742Z,12.79
2019-05-21T13:50:09.417Z,12.79
2019-05-21T13:52:38.970Z,12.87
2019-05-21T13:55:09.080Z,12.82
2019-05-21T13:57:38.425Z,12.86
2019-05-21T14:00:11.883Z,12.97
2019-05-21T14:02:40.927Z,12.93
2019-05-21T14:05:10.667Z,12.88
2019-05-21T14:07:40.314Z,12.86
2019-05-21T14:10:16.139Z,12.94
2019-05-21T14:12:41.511Z,12.81
2019-05-21T14:15:11.111Z,12.86
2019-05-21T14:17:40.244Z,12.78
2019-05-21T14:20:10.546Z,12.76
2019-05-21T14:22:39.650Z,12.81
2019-05-21T14:25:09.612Z,12.60
2019-05-21T14:27:44.567Z,12.61
2019-05-21T14:30:10.447Z,12.57
2019-05-21T14:32:39.502Z,12.71
2019-05-21T14:35:09.626Z,12.69
2019-05-21T14:37:38.931Z,12.73
2019-05-21T14:40:10.489Z,12.84
2019-05-21T14:42:40.163Z,12.94
2019-05-21T14:45:10.361Z,12.93
2019-05-21T14:47:39.662Z,13.03
2019-05-21T14:50:10.385Z,12.89
2019-05-21T14:52:39.644Z,12.90
2019-05-21T14:55:09.509Z,12.74
2019-05-21T14:57:38.674Z,12.73
2019-05-21T15:00:11.063Z,12.81
2019-05-21T15:02:40.882Z,12.82
2019-05-21T15:05:10.642Z,12.75
2019-05-21T15:07:39.772Z,12.76
2019-05-21T15:10:09.243Z,12.64
2019-05-21T15:12:38.778Z,12.67
2019-05-21T15:15:08.288Z,12.77
2019-05-21T15:17:37.561Z,12.80
2019-05-21T15:20:09.502Z,12.86
2019-05-21T15:22:38.690Z,12.84
2019-05-21T15:25:07.888Z,12.72
2019-05-21T15:27:37.093Z,12.80
2019-05-21T15:30:07.559Z,12.85
2019-05-21T15:32:37.108Z,13.01
2019-05-21T15:35:06.652Z,12.92
2019-05-21T15:37:37.562Z,13.05
2019-05-21T15:40:07.170Z,13.11
2019-05-21T15:42:36.323Z,13.10
2019-05-21T15:45:07.392Z,13.09
2019-05-21T15:47:36.455Z,13.09
2019-05-21T15:50:06.685Z,12.96
2019-05-21T15:52:35.978Z,13.17
2019-05-21T15:55:08.275Z,13.39
2019-05-21T15:57:37.490Z,13.45
2019-05-21T16:00:08.625Z,13.34
2019-05-21T16:02:37.829Z,13.43
2019-05-21T16:05:07.914Z,13.51
2019-05-21T16:07:37.575Z,13.42
2019-05-21T16:10:09.073Z,13.13
2019-05-21T16:12:38.438Z,13.28
2019-05-21T16:15:08.617Z,13.22
2019-05-21T16:17:37.755Z,13.23
2019-05-21T16:20:09.978Z,13.22
2019-05-21T16:22:39.305Z,13.16
2019-05-21T16:25:09.017Z,13.16
2019-05-21T16:27:38.503Z,13.17
2019-05-21T16:30:08.413Z,13.35
2019-05-21T16:32:37.501Z,13.38
2019-05-21T16:35:08.406Z,13.36
2019-05-21T16:37:38.031Z,13.35
2019-05-21T16:40:08.479Z,13.39
2019-05-21T16:42:37.660Z,13.28
2019-05-21T16:45:08.311Z,13.38
2019-05-21T16:47:45.684Z,13.32
2019-05-21T16:50:09.674Z,13.23
2019-05-21T16:52:39.178Z,13.29
2019-05-21T16:55:08.641Z,13.39
2019-05-21T16:57:37.795Z,13.41
2019-05-21T17:00:08.546Z,13.45
2019-05-21T17:02:38.014Z,13.40
2019-05-21T17:05:08.511Z,13.29
2019-05-21T17:07:37.648Z,13.42
2019-05-21T17:10:07.875Z,13.47
2019-05-21T17:12:37.065Z,13.38
2019-05-21T17:15:08.923Z,13.37
2019-05-21T17:17:38.071Z,13.37
2019-05-21T17:20:08.745Z,13.36
2019-05-21T17:22:38.244Z,13.18
2019-05-21T17:25:08.851Z,13.33
2019-05-21T17:27:37.950Z,13.29
2019-05-21T17:30:08.751Z,13.27
2019-05-21T17:32:38.471Z,13.22
2019-05-21T17:35:08.042Z,13.17
2019-05-21T17:37:37.476Z,13.02
2019-05-21T17:40:07.321Z,13.00
2019-05-21T17:42:37.049Z,13.18
2019-05-21T17:45:10.965Z,12.90
2019-05-21T17:47:40.390Z,13.03
2019-05-21T17:50:10.386Z,12.96
2019-05-21T17:52:40.115Z,13.09
2019-05-21T17:55:10.602Z,13.04
2019-05-21T17:57:40.430Z,13.08
2019-05-21T18:00:11.393Z,13.10
2019-05-21T18:02:41.232Z,13.09
2019-05-21T18:05:11.385Z,13.12
2019-05-21T18:07:41.799Z,13.16
2019-05-21T18:10:14.158Z,13.04
2019-05-21T18:12:44.689Z,13.21
2019-05-21T18:15:14.706Z,13.19
2019-05-21T18:17:45.165Z,13.09
2019-05-21T18:20:16.020Z,13.04
2019-05-21T18:22:45.822Z,13.17
2019-05-21T18:25:15.893Z,13.07
2019-05-21T18:27:45.162Z,13.04
2019-05-21T18:30:14.637Z,12.97
2019-05-21T18:32:44.822Z,12.85
2019-05-21T18:35:14.393Z,12.60
2019-05-21T18:37:43.628Z,12.87
2019-05-21T18:40:14.805Z,12.99
2019-05-21T18:42:44.433Z,12.97
2019-05-21T18:45:14.109Z,12.87
2019-05-21T18:47:43.813Z,12.91
2019-05-21T18:50:13.504Z,12.99
2019-05-21T18:52:42.812Z,12.81
2019-05-21T18:55:13.413Z,12.87
2019-05-21T18:57:42.554Z,12.88
2019-05-21T19:00:12.588Z,12.71
2019-05-21T19:02:42.155Z,12.74
2019-05-21T19:05:11.827Z,12.74
2019-05-21T19:07:41.006Z,12.77
2019-05-21T19:10:11.020Z,12.72
2019-05-21T19:12:41.094Z,12.78
2019-05-21T19:15:11.501Z,12.72
2019-05-21T19:17:40.843Z,12.70
2019-05-21T19:20:11.187Z,12.78
2019-05-21T19:22:40.326Z,12.93
2019-05-21T19:25:10.184Z,12.76
2019-05-21T19:27:39.274Z,12.89
2019-05-21T19:30:10.567Z,12.85
2019-05-21T19:32:39.658Z,12.90
2019-05-21T19:35:10.458Z,12.84
2019-05-21T19:37:39.500Z,12.79
2019-05-21T19:40:09.809Z,12.84
2019-05-21T19:42:53.819Z,12.90
2019-05-21T19:45:11.744Z,12.90
2019-05-21T19:47:40.856Z,12.80
2019-05-21T19:50:10.641Z,12.75
2019-05-21T19:52:39.784Z,12.89
2019-05-21T19:55:09.460Z,12.84
2019-05-21T19:57:40.166Z,12.87
2019-05-21T20:00:10.342Z,12.75
2019-05-21T20:02:40.121Z,12.65
2019-05-21T20:05:10.274Z,12.62
2019-05-21T20:07:39.681Z,12.74
2019-05-21T20:10:09.555Z,12.73
2019-05-21T20:12:38.904Z,12.78
2019-05-21T20:15:09.659Z,12.76
2019-05-21T20:17:41.047Z,12.79
2019-05-21T20:20:11.817Z,12.84
2019-05-21T20:22:42.637Z,12.79
2019-05-21T20:25:13.233Z,12.91
2019-05-21T20:27:42.289Z,12.89
2019-05-21T20:30:14.647Z,12.97
2019-05-21T20:32:46.385Z,12.83
2019-05-21T20:35:16.971Z,12.78
2019-05-21T20:37:48.601Z,12.69
2019-05-21T20:40:18.863Z,12.74
2019-05-21T20:42:48.294Z,12.68
2019-05-21T20:45:19.429Z,12.55
2019-05-21T20:47:51.214Z,12.69
2019-05-21T20:50:22.731Z,12.71
2019-05-21T20:52:52.585Z,12.70
2019-05-21T20:55:21.999Z,12.62
2019-05-21T20:57:53.245Z,12.73
2019-05-21T21:00:38.400Z,12.66
2019-05-21T21:03:09.563Z,12.74
2019-05-21T21:05:39.432Z,12.77
2019-05-21T21:08:08.975Z,12.73
2019-05-21T21:10:38.721Z,12.73
2019-05-21T21:13:08.797Z,12.70
2019-05-21T21:15:38.474Z,12.81
2019-05-21T21:18:07.687Z,12.74
2019-05-21T21:20:37.322Z,12.81
2019-05-21T21:23:06.801Z,12.80
2019-05-21T21:25:36.367Z,12.81
2019-05-21T21:28:05.739Z,12.79
2019-05-21T21:30:36.322Z,12.68
2019-05-21T21:33:07.203Z,12.68
2019-05-21T21:35:37.200Z,12.70
2019-05-21T21:38:07.920Z,12.69
2019-05-21T21:40:37.089Z,12.64
2019-05-21T21:43:08.018Z,12.74
2019-05-21T21:45:38.750Z,12.72
2019-05-21T21:48:08.805Z,12.73
2019-05-21T21:50:39.763Z,12.81
2019-05-21T21:53:09.649Z,12.83
2019-05-21T21:55:39.160Z,12.83
2019-05-21T21:58:09.145Z,12.81
2019-05-21T22:00:42.898Z,12.68
2019-05-21T22:03:13.669Z,12.56
2019-05-21T22:05:43.929Z,12.52
2019-05-21T22:08:12.970Z,12.40
2019-05-21T22:10:45.804Z,12.39
2019-05-21T22:13:14.686Z,12.43
2019-05-21T22:15:43.911Z,12.49
2019-05-21T22:18:14.286Z,12.42
2019-05-21T22:20:43.434Z,12.43
2019-05-21T22:23:14.198Z,12.50
2019-05-21T22:25:43.284Z,12.54
2019-05-21T22:28:12.874Z,12.47
2019-05-21T22:30:42.491Z,12.44
2019-05-21T22:33:11.966Z,12.58
2019-05-21T22:35:41.347Z,12.48
2019-05-21T22:38:11.120Z,12.52
2019-05-21T22:40:40.661Z,12.57
2019-05-21T22:43:09.717Z,12.59
2019-05-21T22:45:39.600Z,12.55
2019-05-21T22:48:08.760Z,12.64
2019-05-21T22:50:37.990Z,12.48
2019-05-21T22:53:07.251Z,12.51
2019-05-21T22:55:36.398Z,12.56
2019-05-21T22:58:06.983Z,12.72
2019-05-21T23:00:36.799Z,12.62
2019-05-21T23:03:06.484Z,12.57
2019-05-21T23:05:36.014Z,12.51
2019-05-21T23:08:05.846Z,12.48
2019-05-21T23:10:35.290Z,12.48
2019-05-21T23:13:04.505Z,12.45
2019-05-21T23:15:34.259Z,12.41
2019-05-21T23:18:04.071Z,12.31
2019-05-21T23:20:35.915Z,12.48
2019-05-21T23:23:06.114Z,12.39
2019-05-21T23:25:36.650Z,12.33
2019-05-21T23:28:06.260Z,12.22
2019-05-21T23:30:36.103Z,12.33
2019-05-21T23:33:06.877Z,12.32
2019-05-21T23:35:36.750Z,12.28
2019-05-21T23:38:08.947Z,12.36
2019-05-21T23:40:38.637Z,12.26
2019-05-21T23:43:08.543Z,12.33
2019-05-21T23:45:37.654Z,12.21
2019-05-21T23:48:09.215Z,12.12
2019-05-21T23:50:38.260Z,12.17
2019-05-21T23:53:08.018Z,12.09
2019-05-21T23:55:38.382Z,12.31
2019-05-21T23:58:07.891Z,12.29
